Time;durP1;ratioP1;P1;durP2;ratioP2;P2;SDS_P1;SDS_P2;PMS_P1;PMS_P2;Temp;Humidity;BMP_temperature;BMP_pressure;BME280_temperature;BME280_humidity;BME280_pressure;Samples;Min_cycle;Max_cycle;Signal;HPM_P1;HPM_P2
2023/07/30 00:01:34;;;;;;;;;;;;;;;13.04;61.26;95033.91;5010655;28;20396;-65
2023/07/30 00:03:59;;;;;;;;;;;;;;;12.66;62.52;95030.84;5001309;28;19944;-65
2023/07/30 00:06:24;;;;;;;;;;;;;;;12.29;64.23;95025.06;4995329;28;19926;-65
2023/07/30 00:08:50;;;;;;;;;;;;;;;12.70;63.19;95022.38;5005164;28;19928;-65
2023/07/30 00:11:15;;;;;;;;;;;;;;;12.97;62.22;95020.53;5004590;28;19968;-65
2023/07/30 00:13:40;;;;;;;;;;;;;;;12.69;62.29;95018.91;5009093;28;19923;-65
2023/07/30 00:16:05;;;;;;;;;;;;;;;12.79;62.34;95021.16;5005911;28;20599;-65
2023/07/30 00:18:31;;;;;;;;;;;;;;;12.18;64.63;95029.16;5008520;28;20262;-64
2023/07/30 00:20:56;;;;;;;;;;;;;;;12.51;63.48;95035.56;5003472;28;19928;-64
2023/07/30 00:23:21;;;;;;;;;;;;;;;12.46;63.70;95030.81;5004961;28;20020;-64
2023/07/30 00:25:46;;;;;;;;;;;;;;;12.22;64.71;95045.56;5004156;28;20035;-64
2023/07/30 00:28:12;;;;;;;;;;;;;;;12.19;64.45;95053.97;5001931;28;19933;-64
2023/07/30 00:30:37;;;;;;;;;;;;;;;11.84;66.38;95038.88;5000355;28;20390;-65
2023/07/30 00:33:02;;;;;;;;;;;;;;;12.01;65.29;95040.16;5014252;28;20200;-64
2023/07/30 00:35:27;;;;;;;;;;;;;;;11.87;66.03;95035.81;5005221;28;19929;-65
2023/07/30 00:37:53;;;;;;;;;;;;;;;12.24;64.82;95044.34;5014924;28;20352;-64
2023/07/30 00:40:18;;;;;;;;;;;;;;;12.39;64.22;95044.16;5006353;28;20218;-64
2023/07/30 00:42:43;;;;;;;;;;;;;;;12.22;65.10;95049.06;5009153;28;19947;-65
2023/07/30 00:45:09;;;;;;;;;;;;;;;12.43;64.09;95047.25;5004431;28;19926;-65
2023/07/30 00:47:34;;;;;;;;;;;;;;;12.02;65.38;95055.16;5005760;28;19948;-64
2023/07/30 00:50:00;;;;;;;;;;;;;;;12.33;63.84;95058.31;5002748;28;19929;-65
2023/07/30 00:52:25;;;;;;;;;;;;;;;12.47;63.24;95056.47;5004046;28;19913;-64
2023/07/30 00:54:51;;;;;;;;;;;;;;;12.46;63.69;95051.34;5002090;28;19926;-64
2023/07/30 00:57:16;;;;;;;;;;;;;;;12.23;64.77;95060.53;4982066;28;19925;-64
2023/07/30 00:59:41;;;;;;;;;;;;;;;12.32;64.03;95063.84;5000285;28;19972;-65
2023/07/30 01:02:07;;;;;;;;;;;;;;;12.49;63.60;95058.94;5000908;28;20410;-66
2023/07/30 01:04:32;;;;;;;;;;;;;;;12.43;63.61;95065.94;4997552;28;19925;-66
2023/07/30 01:06:57;;;;;;;;;;;;;;;12.99;62.32;95063.06;5000537;28;20009;-65
2023/07/30 01:09:22;;;;;;;;;;;;;;;12.73;62.45;95059.38;5003590;28;19917;-66
2023/07/30 01:11:48;;;;;;;;;;;;;;;12.79;62.25;95061.22;4999681;28;19924;-66
2023/07/30 01:14:14;;;;;;;;;;;;;;;12.98;61.93;95062.25;4999421;28;19917;-66
2023/07/30 01:16:39;;;;;;;;;;;;;;;13.10;61.00;95057.13;5001446;28;19923;-65
2023/07/30 01:19:05;;;;;;;;;;;;;;;12.75;62.13;95068.81;4995874;28;20166;-66
2023/07/30 01:21:31;;;;;;;;;;;;;;;13.04;61.20;95061.47;4997954;28;20008;-65
2023/07/30 01:23:57;;;;;;;;;;;;;;;12.86;61.68;95067.41;5006032;28;19975;-66
2023/07/30 01:26:23;;;;;;;;;;;;;;;13.17;60.56;95063.28;5000767;28;19933;-66
2023/07/30 01:28:48;;;;;;;;;;;;;;;13.35;59.90;95067.16;4982879;28;20257;-65
2023/07/30 01:31:14;;;;;;;;;;;;;;;13.16;59.95;95075.00;5001896;28;19918;-65
2023/07/30 01:33:39;;;;;;;;;;;;;;;12.71;61.47;95074.78;4984525;28;19987;-65
2023/07/30 01:36:04;;;;;;;;;;;;;;;12.61;61.68;95073.34;5003670;28;19917;-66
2023/07/30 01:38:30;;;;;;;;;;;;;;;12.61;61.47;95077.88;4999859;28;19929;-66
2023/07/30 01:40:55;;;;;;;;;;;;;;;12.27;62.62;95081.31;4985111;28;19913;-66
2023/07/30 01:43:20;;;;;;;;;;;;;;;12.71;61.00;95080.13;5003650;28;19921;-66
2023/07/30 01:45:45;;;;;;;;;;;;;;;12.39;61.98;95089.56;5001577;28;19920;-65
2023/07/30 01:48:11;;;;;;;;;;;;;;;12.24;62.31;95083.56;5005088;28;19924;-66
2023/07/30 01:50:36;;;;;;;;;;;;;;;12.65;61.29;95076.44;5003088;28;20420;-66
2023/07/30 01:53:01;;;;;;;;;;;;;;;12.86;60.42;95083.44;5003913;28;20643;-66
2023/07/30 01:55:26;;;;;;;;;;;;;;;12.70;60.33;95078.47;5002222;28;20105;-66
2023/07/30 01:57:52;;;;;;;;;;;;;;;12.83;60.03;95075.81;5002128;28;19928;-66
2023/07/30 02:00:17;;;;;;;;;;;;;;;11.93;62.98;95087.53;5003995;28;20105;-66
2023/07/30 02:02:42;;;;;;;;;;;;;;;11.94;63.32;95087.34;5006061;28;20333;-65
2023/07/30 02:05:07;;;;;;;;;;;;;;;12.29;61.99;95091.78;5003510;28;20060;-65
2023/07/30 02:07:32;;;;;;;;;;;;;;;12.35;61.39;95088.31;5008587;28;20032;-64
2023/07/30 02:09:58;;;;;;;;;;;;;;;12.02;62.48;95091.66;5010627;28;20131;-65
2023/07/30 02:12:23;;;;;;;;;;;;;;;12.52;60.78;95093.25;5009989;28;20177;-65
2023/07/30 02:14:48;;;;;;;;;;;;;;;12.77;59.56;95085.47;5004086;28;20209;-65
2023/07/30 02:17:14;;;;;;;;;;;;;;;12.38;60.88;95090.56;5011486;28;19924;-64
2023/07/30 02:19:39;;;;;;;;;;;;;;;12.76;59.42;95083.84;5002233;28;20704;-64
2023/07/30 02:22:04;;;;;;;;;;;;;;;12.91;58.46;95091.63;5005310;28;19949;-64
2023/07/30 02:24:29;;;;;;;;;;;;;;;12.82;58.86;95092.88;5001841;28;20108;-64
2023/07/30 02:26:55;;;;;;;;;;;;;;;12.62;58.86;95093.66;5005590;28;19932;-64
2023/07/30 02:29:20;;;;;;;;;;;;;;;12.18;60.41;95105.69;5003751;28;19917;-64
2023/07/30 02:31:45;;;;;;;;;;;;;;;12.06;60.94;95116.09;5006142;28;20441;-65
2023/07/30 02:34:11;;;;;;;;;;;;;;;11.86;61.90;95106.16;5009269;28;20114;-64
2023/07/30 02:36:36;;;;;;;;;;;;;;;12.13;60.97;95099.13;5008303;28;19929;-64
2023/07/30 02:39:01;;;;;;;;;;;;;;;11.93;61.60;95107.00;5011963;28;19924;-64
2023/07/30 02:41:26;;;;;;;;;;;;;;;11.64;63.29;95101.78;5000820;28;20290;-64
2023/07/30 02:43:52;;;;;;;;;;;;;;;11.12;65.42;95111.91;5006056;28;19929;-64
2023/07/30 02:46:17;;;;;;;;;;;;;;;11.19;65.41;95106.63;5008321;28;19928;-64
2023/07/30 02:48:42;;;;;;;;;;;;;;;11.00;66.21;95104.44;5005617;28;19921;-65
2023/07/30 02:51:07;;;;;;;;;;;;;;;11.33;65.16;95096.88;5004512;28;20302;-65
2023/07/30 02:53:33;;;;;;;;;;;;;;;11.07;65.75;95104.47;5002993;28;20048;-64
2023/07/30 02:55:58;;;;;;;;;;;;;;;11.38;64.52;95107.78;5013282;28;20022;-64
2023/07/30 02:58:23;;;;;;;;;;;;;;;11.07;65.44;95109.78;4999174;28;20004;-64
2023/07/30 03:00:48;;;;;;;;;;;;;;;11.26;64.85;95112.84;5011826;28;19921;-65
2023/07/30 03:03:14;;;;;;;;;;;;;;;11.30;64.58;95113.25;5005882;28;20215;-65
2023/07/30 03:05:42;;;;;;;;;;;;;;;11.52;63.71;95117.50;5001352;28;19924;-64
2023/07/30 03:08:07;;;;;;;;;;;;;;;11.42;63.68;95117.00;5006660;28;19983;-64
2023/07/30 03:10:33;;;;;;;;;;;;;;;11.38;63.87;95113.09;5010362;28;19929;-64
2023/07/30 03:12:58;;;;;;;;;;;;;;;11.65;62.42;95115.91;5001450;28;19921;-65
2023/07/30 03:15:23;;;;;;;;;;;;;;;11.19;64.07;95125.28;5007852;28;19964;-64
2023/07/30 03:17:48;;;;;;;;;;;;;;;11.30;63.55;95129.25;5005594;28;19925;-64
2023/07/30 03:20:14;;;;;;;;;;;;;;;11.17;63.84;95120.16;4999422;28;20411;-65
2023/07/30 03:22:39;;;;;;;;;;;;;;;11.21;63.28;95132.06;4999874;28;19922;-64
2023/07/30 03:25:04;;;;;;;;;;;;;;;11.52;62.66;95127.31;5000936;28;19955;-64
2023/07/30 03:27:29;;;;;;;;;;;;;;;11.78;61.26;95123.16;5002250;28;20165;-65
2023/07/30 03:29:55;;;;;;;;;;;;;;;11.56;62.01;95123.25;5000971;28;19917;-64
2023/07/30 03:32:20;;;;;;;;;;;;;;;10.93;63.63;95124.84;5001374;28;20348;-65
2023/07/30 03:34:45;;;;;;;;;;;;;;;10.56;64.93;95122.28;5005635;28;19927;-64
2023/07/30 03:37:10;;;;;;;;;;;;;;;11.15;63.13;95116.03;5010211;28;20031;-64
2023/07/30 03:39:35;;;;;;;;;;;;;;;11.35;61.92;95124.97;5018764;28;20172;-64
2023/07/30 03:42:01;;;;;;;;;;;;;;;11.63;60.96;95118.78;5009752;28;19956;-64
2023/07/30 03:44:26;;;;;;;;;;;;;;;11.79;59.86;95124.81;5007309;28;19925;-64
2023/07/30 03:46:51;;;;;;;;;;;;;;;11.85;59.83;95120.53;5006151;28;20140;-64
2023/07/30 03:49:16;;;;;;;;;;;;;;;12.06;59.21;95122.28;5000262;28;19917;-64
2023/07/30 03:51:42;;;;;;;;;;;;;;;12.66;57.20;95118.97;5001287;28;20259;-65
2023/07/30 03:54:07;;;;;;;;;;;;;;;12.76;56.41;95126.56;5010419;28;20472;-64
2023/07/30 03:56:32;;;;;;;;;;;;;;;13.11;55.94;95125.56;5003016;28;20575;-64
2023/07/30 03:58:57;;;;;;;;;;;;;;;13.41;54.64;95121.63;5002200;28;20398;-64
2023/07/30 04:01:23;;;;;;;;;;;;;;;13.50;54.26;95123.06;5008554;28;20090;-64
2023/07/30 04:03:48;;;;;;;;;;;;;;;13.56;53.76;95130.25;5004265;28;19933;-64
2023/07/30 04:06:13;;;;;;;;;;;;;;;13.83;53.65;95119.47;5004570;28;19929;-64
2023/07/30 04:08:38;;;;;;;;;;;;;;;14.06;52.89;95125.41;5008945;28;20435;-65
2023/07/30 04:11:04;;;;;;;;;;;;;;;14.13;52.27;95122.69;5005106;28;19922;-64
2023/07/30 04:13:29;;;;;;;;;;;;;;;13.91;52.83;95114.97;5001666;28;20069;-64
2023/07/30 04:15:54;;;;;;;;;;;;;;;14.31;52.76;95113.97;5001457;28;20599;-64
2023/07/30 04:18:19;;;;;;;;;;;;;;;14.32;52.24;95121.75;4994523;28;20218;-65
2023/07/30 04:20:45;;;;;;;;;;;;;;;14.80;51.07;95113.47;4996539;28;19914;-65
2023/07/30 04:23:10;;;;;;;;;;;;;;;14.66;50.91;95129.63;4999392;28;19926;-64
2023/07/30 04:25:35;;;;;;;;;;;;;;;14.42;51.18;95121.28;4998070;28;20028;-64
2023/07/30 04:28:00;;;;;;;;;;;;;;;14.45;51.14;95126.22;5000145;28;19914;-65
2023/07/30 04:30:26;;;;;;;;;;;;;;;14.15;51.80;95132.16;4997897;28;20371;-65
2023/07/30 04:32:51;;;;;;;;;;;;;;;13.81;52.92;95142.13;5000820;28;19965;-64
2023/07/30 04:35:16;;;;;;;;;;;;;;;13.49;53.42;95133.97;5006529;28;20389;-64
2023/07/30 04:37:41;;;;;;;;;;;;;;;13.51;53.88;95129.22;5000383;28;19956;-65
2023/07/30 04:40:07;;;;;;;;;;;;;;;13.73;52.19;95124.44;4999832;28;20023;-64
2023/07/30 04:42:32;;;;;;;;;;;;;;;13.68;52.87;95127.78;4999265;28;20379;-64
2023/07/30 04:44:58;;;;;;;;;;;;;;;14.00;52.12;95120.91;5000425;28;19918;-65
2023/07/30 04:47:23;;;;;;;;;;;;;;;14.01;51.34;95119.88;5005018;28;19929;-64
2023/07/30 04:49:48;;;;;;;;;;;;;;;13.59;52.49;95122.84;4999119;28;19928;-65
2023/07/30 04:52:13;;;;;;;;;;;;;;;13.79;52.15;95120.94;4999986;28;20414;-65
2023/07/30 04:54:39;;;;;;;;;;;;;;;13.96;51.33;95117.81;4999041;28;20190;-65
2023/07/30 04:57:05;;;;;;;;;;;;;;;13.92;51.95;95120.09;4999209;28;20016;-65
2023/07/30 04:59:30;;;;;;;;;;;;;;;14.16;51.37;95120.41;4998746;28;19926;-64
2023/07/30 05:01:56;;;;;;;;;;;;;;;14.16;51.48;95115.06;4999101;28;19984;-65
2023/07/30 05:04:21;;;;;;;;;;;;;;;14.30;51.01;95115.81;5001469;28;19917;-64
2023/07/30 05:06:46;;;;;;;;;;;;;;;14.54;50.55;95113.41;5002135;28;20197;-64
2023/07/30 05:09:11;;;;;;;;;;;;;;;14.19;51.75;95122.69;5007146;28;19925;-65
2023/07/30 05:11:37;;;;;;;;;;;;;;;14.78;50.65;95121.72;5003397;28;19922;-64
2023/07/30 05:14:02;;;;;;;;;;;;;;;14.23;51.58;95124.91;5003649;28;20009;-65
2023/07/30 05:16:27;;;;;;;;;;;;;;;14.27;51.14;95121.59;5003475;28;20554;-64
2023/07/30 05:18:52;;;;;;;;;;;;;;;14.72;51.22;95119.88;5007138;28;20002;-65
2023/07/30 05:21:18;;;;;;;;;;;;;;;15.00;49.78;95112.50;5009734;28;19913;-65
2023/07/30 05:23:43;;;;;;;;;;;;;;;15.35;49.38;95114.69;5014048;28;19984;-65
2023/07/30 05:26:08;;;;;;;;;;;;;;;15.66;48.44;95117.50;5007711;28;20415;-64
2023/07/30 05:28:33;;;;;;;;;;;;;;;15.74;48.04;95118.03;5006349;28;19928;-65
2023/07/30 05:30:59;;;;;;;;;;;;;;;14.41;50.75;95116.97;5006312;28;20042;-65
2023/07/30 05:33:24;;;;;;;;;;;;;;;15.01;49.88;95117.66;5014332;28;20071;-65
2023/07/30 05:35:49;;;;;;;;;;;;;;;15.30;49.26;95122.56;5006009;28;20390;-64
2023/07/30 05:38:15;;;;;;;;;;;;;;;15.61;48.41;95126.22;5011479;28;19925;-65
2023/07/30 05:40:41;;;;;;;;;;;;;;;16.14;47.32;95121.28;5007994;28;19921;-66
2023/07/30 05:43:06;;;;;;;;;;;;;;;15.90;46.98;95118.47;5011075;28;20398;-66
2023/07/30 05:45:31;;;;;;;;;;;;;;;14.94;47.61;95120.38;5009103;28;19922;-67
2023/07/30 05:47:56;;;;;;;;;;;;;;;14.57;49.22;95112.16;5003527;28;20252;-65
2023/07/30 05:50:21;;;;;;;;;;;;;;;14.65;48.90;95113.78;5011128;28;20406;-66
2023/07/30 05:52:47;;;;;;;;;;;;;;;14.02;50.79;95125.00;5007055;28;19918;-66
2023/07/30 05:55:12;;;;;;;;;;;;;;;14.08;51.23;95121.47;5004672;28;20199;-66
2023/07/30 05:57:37;;;;;;;;;;;;;;;13.93;51.46;95126.25;5002553;28;19945;-65
2023/07/30 06:00:03;;;;;;;;;;;;;;;13.08;53.68;95130.53;5003057;28;19921;-65
2023/07/30 06:02:28;;;;;;;;;;;;;;;13.37;53.67;95125.75;5009759;28;20415;-65
2023/07/30 06:04:53;;;;;;;;;;;;;;;13.74;52.72;95125.28;5005324;28;19978;-65
2023/07/30 06:07:19;;;;;;;;;;;;;;;13.56;52.12;95124.91;5001439;28;19975;-66
2023/07/30 06:09:45;;;;;;;;;;;;;;;13.49;53.24;95139.34;5011910;28;19968;-65
2023/07/30 06:12:10;;;;;;;;;;;;;;;13.39;53.48;95135.22;5003585;28;20314;-66
2023/07/30 06:14:35;;;;;;;;;;;;;;;13.28;54.25;95138.50;5003921;28;19925;-65
2023/07/30 06:17:01;;;;;;;;;;;;;;;12.54;56.57;95141.91;5000275;28;19925;-65
2023/07/30 06:19:26;;;;;;;;;;;;;;;12.74;55.80;95151.81;4999915;28;20261;-66
2023/07/30 06:21:51;;;;;;;;;;;;;;;12.37;57.20;95154.81;4999628;28;21025;-66
2023/07/30 06:24:17;;;;;;;;;;;;;;;12.84;56.19;95143.41;5003769;28;19914;-66
2023/07/30 06:26:42;;;;;;;;;;;;;;;12.11;58.30;95151.84;5009832;28;19925;-65
2023/07/30 06:29:07;;;;;;;;;;;;;;;12.32;57.01;95142.09;5010263;28;20616;-65
2023/07/30 06:31:32;;;;;;;;;;;;;;;12.20;58.34;95157.03;5010632;28;19921;-65
2023/07/30 06:33:58;;;;;;;;;;;;;;;11.37;60.22;95152.28;5011397;28;20390;-66
2023/07/30 06:36:23;;;;;;;;;;;;;;;11.09;62.42;95158.38;5008031;28;19929;-66
2023/07/30 06:38:48;;;;;;;;;;;;;;;11.02;62.53;95146.03;5014629;28;19921;-66
2023/07/30 06:41:13;;;;;;;;;;;;;;;11.56;61.16;95157.09;5013462;28;20010;-65
2023/07/30 06:43:39;;;;;;;;;;;;;;;11.83;60.27;95158.06;5012839;28;19922;-66
2023/07/30 06:46:04;;;;;;;;;;;;;;;12.28;59.02;95152.31;5009863;28;19920;-66
2023/07/30 06:48:29;;;;;;;;;;;;;;;12.38;57.30;95151.94;5012600;28;19925;-64
2023/07/30 06:50:54;;;;;;;;;;;;;;;12.60;57.28;95161.66;5006517;28;19925;-65
2023/07/30 06:53:20;;;;;;;;;;;;;;;12.38;57.40;95164.50;5001959;28;20465;-64
2023/07/30 06:55:45;;;;;;;;;;;;;;;12.77;55.42;95156.75;5007857;28;19921;-64
2023/07/30 06:58:10;;;;;;;;;;;;;;;13.05;53.96;95161.13;5002676;28;19921;-65
2023/07/30 07:00:36;;;;;;;;;;;;;;;13.01;54.01;95165.22;5004992;28;20357;-64
2023/07/30 07:03:01;;;;;;;;;;;;;;;12.08;56.55;95184.28;5015638;28;19975;-64
2023/07/30 07:05:26;;;;;;;;;;;;;;;12.33;55.65;95175.75;5009420;28;19926;-64
2023/07/30 07:07:51;;;;;;;;;;;;;;;12.52;55.51;95184.84;5006322;28;19918;-64
2023/07/30 07:10:16;;;;;;;;;;;;;;;12.11;56.27;95175.88;5003093;28;20380;-64
2023/07/30 07:12:42;;;;;;;;;;;;;;;12.25;56.19;95186.63;5005622;28;19917;-64
2023/07/30 07:15:07;;;;;;;;;;;;;;;12.37;53.93;95181.50;5002369;28;19924;-64
2023/07/30 07:17:32;;;;;;;;;;;;;;;12.08;54.57;95186.97;5006875;28;19971;-64
2023/07/30 07:19:58;;;;;;;;;;;;;;;12.59;54.05;95179.53;5002272;28;19980;-64
2023/07/30 07:22:23;;;;;;;;;;;;;;;12.28;54.23;95186.22;5000140;28;19921;-64
2023/07/30 07:24:48;;;;;;;;;;;;;;;12.05;55.53;95184.66;5004210;28;20004;-64
2023/07/30 07:27:14;;;;;;;;;;;;;;;11.99;55.99;95185.44;5003557;28;19929;-64
2023/07/30 07:29:39;;;;;;;;;;;;;;;11.54;56.71;95193.78;5003866;28;20366;-64
2023/07/30 07:32:04;;;;;;;;;;;;;;;11.52;57.18;95188.63;5010366;28;20008;-64
2023/07/30 07:34:32;;;;;;;;;;;;;;;12.01;56.23;95194.06;4979875;28;21244;-64
2023/07/30 07:36:57;;;;;;;;;;;;;;;12.12;55.50;95187.38;5003309;28;19963;-64
2023/07/30 07:39:22;;;;;;;;;;;;;;;12.03;56.74;95187.50;5009370;28;19928;-64
2023/07/30 07:41:47;;;;;;;;;;;;;;;11.83;56.61;95192.72;5004185;28;20042;-64
2023/07/30 07:44:13;;;;;;;;;;;;;;;11.66;56.03;95191.41;5002770;28;19937;-64
2023/07/30 07:46:38;;;;;;;;;;;;;;;12.13;57.06;95181.00;5004198;28;19928;-64
2023/07/30 07:49:03;;;;;;;;;;;;;;;12.09;56.42;95188.59;5004244;28;20008;-64
2023/07/30 07:51:29;;;;;;;;;;;;;;;12.24;56.49;95193.78;5006051;28;20583;-65
2023/07/30 07:53:54;;;;;;;;;;;;;;;11.72;58.05;95199.44;5007750;28;20385;-64
2023/07/30 07:56:19;;;;;;;;;;;;;;;11.94;57.59;95193.22;5013658;28;20003;-64
2023/07/30 07:58:44;;;;;;;;;;;;;;;11.63;58.71;95204.09;5001091;28;19932;-64
2023/07/30 08:01:09;;;;;;;;;;;;;;;11.40;59.76;95204.34;5002413;28;20028;-62
2023/07/30 08:03:35;;;;;;;;;;;;;;;11.63;59.19;95208.63;5007275;28;19980;-62
2023/07/30 08:06:00;;;;;;;;;;;;;;;11.67;58.56;95204.56;5001226;28;19925;-63
2023/07/30 08:08:26;;;;;;;;;;;;;;;11.69;59.63;95202.50;5010970;28;20389;-63
2023/07/30 08:10:51;;;;;;;;;;;;;;;11.19;61.05;95208.69;5008933;28;20336;-63
2023/07/30 08:13:16;;;;;;;;;;;;;;;11.22;60.91;95202.16;5006382;28;19921;-64
2023/07/30 08:15:42;;;;;;;;;;;;;;;11.28;60.70;95206.72;5009443;28;19925;-64
2023/07/30 08:18:07;;;;;;;;;;;;;;;10.87;61.74;95214.31;5004872;28;20281;-63
2023/07/30 08:20:32;;;;;;;;;;;;;;;11.01;61.61;95211.78;5003080;28;19992;-64
2023/07/30 08:22:57;;;;;;;;;;;;;;;11.20;61.95;95213.00;5006647;28;19945;-63
2023/07/30 08:25:22;;;;;;;;;;;;;;;11.34;60.19;95208.63;5002123;28;19932;-62
2023/07/30 08:27:48;;;;;;;;;;;;;;;10.86;62.92;95215.34;5002072;28;19967;-62
2023/07/30 08:30:13;;;;;;;;;;;;;;;10.68;63.70;95207.75;5000821;28;20597;-64
2023/07/30 08:32:38;;;;;;;;;;;;;;;11.42;61.88;95212.16;5004113;28;20442;-62
2023/07/30 08:35:04;;;;;;;;;;;;;;;11.33;61.09;95222.97;5007164;28;19921;-64
2023/07/30 08:37:29;;;;;;;;;;;;;;;11.46;60.90;95226.75;5007583;28;20007;-62
2023/07/30 08:39:54;;;;;;;;;;;;;;;10.57;63.54;95232.25;5010278;28;19964;-64
2023/07/30 08:42:20;;;;;;;;;;;;;;;10.41;65.04;95238.59;5004935;28;19937;-64
2023/07/30 08:44:45;;;;;;;;;;;;;;;9.95;65.95;95229.78;5001903;28;19921;-64
2023/07/30 08:47:10;;;;;;;;;;;;;;;10.40;65.45;95227.13;5004443;28;19927;-63
2023/07/30 08:49:36;;;;;;;;;;;;;;;10.44;66.00;95225.72;5009426;28;19991;-63
2023/07/30 08:52:01;;;;;;;;;;;;;;;10.46;65.55;95220.22;5009924;28;20380;-63
2023/07/30 08:54:27;;;;;;;;;;;;;;;10.61;65.13;95222.88;5007420;28;20537;-62
2023/07/30 08:56:52;;;;;;;;;;;;;;;10.64;65.02;95224.31;5002188;28;19917;-63
2023/07/30 08:59:18;;;;;;;;;;;;;;;10.89;63.79;95219.47;4982677;28;19924;-64
2023/07/30 09:01:43;;;;;;;;;;;;;;;10.63;64.95;95228.81;4982527;28;20434;-64
2023/07/30 09:04:09;;;;;;;;;;;;;;;11.15;63.47;95223.41;5000871;28;20060;-63
2023/07/30 09:06:34;;;;;;;;;;;;;;;11.23;63.14;95225.13;5000320;28;19928;-64
2023/07/30 09:08:59;;;;;;;;;;;;;;;11.50;60.99;95228.81;5000757;28;19918;-66
2023/07/30 09:11:27;;;;;;;;;;;;;;;11.11;62.79;95236.28;5003169;28;19930;-66
2023/07/30 09:13:53;;;;;;;;;;;;;;;10.54;64.30;95237.94;5002907;28;19928;-66
2023/07/30 09:16:18;;;;;;;;;;;;;;;10.55;62.56;95237.75;5003391;28;19917;-66
2023/07/30 09:18:45;;;;;;;;;;;;;;;10.60;63.05;95235.34;5004954;28;19918;-66
2023/07/30 09:21:11;;;;;;;;;;;;;;;10.49;63.78;95236.66;4978862;28;19968;-66
2023/07/30 09:23:43;;;;;;;;;;;;;;;10.00;64.86;95247.88;5001391;28;19941;-66
2023/07/30 09:26:08;;;;;;;;;;;;;;;10.12;64.47;95241.09;5002092;28;20382;-67
2023/07/30 09:28:34;;;;;;;;;;;;;;;10.09;64.20;95239.63;5002565;28;19924;-66
2023/07/30 09:30:59;;;;;;;;;;;;;;;10.40;63.17;95242.28;5003964;28;19926;-65
2023/07/30 09:33:25;;;;;;;;;;;;;;;10.57;63.45;95251.69;5001583;28;19925;-65
2023/07/30 09:35:50;;;;;;;;;;;;;;;10.86;63.43;95257.13;5001772;28;19918;-66
2023/07/30 09:38:15;;;;;;;;;;;;;;;10.40;61.92;95258.25;5003707;28;19917;-66
2023/07/30 09:40:42;;;;;;;;;;;;;;;10.25;63.21;95260.91;5005383;28;19918;-65
2023/07/30 09:43:09;;;;;;;;;;;;;;;10.52;61.86;95266.56;4998977;28;20344;-66
2023/07/30 09:45:37;;;;;;;;;;;;;;;10.59;63.51;95275.44;5000829;28;19921;-66
2023/07/30 09:48:04;;;;;;;;;;;;;;;10.52;62.76;95266.56;5002927;28;19921;-66
2023/07/30 09:50:29;;;;;;;;;;;;;;;10.72;63.09;95262.28;5005799;28;20015;-65
2023/07/30 09:52:54;;;;;;;;;;;;;;;11.48;59.67;95257.53;5002820;28;19971;-65
2023/07/30 09:55:20;;;;;;;;;;;;;;;10.84;61.57;95251.97;5009189;28;19925;-66
2023/07/30 09:57:45;;;;;;;;;;;;;;;11.18;62.53;95251.53;5006055;28;19917;-65
2023/07/30 10:00:11;;;;;;;;;;;;;;;11.76;59.70;95266.53;5006126;28;19924;-66
2023/07/30 10:02:37;;;;;;;;;;;;;;;11.18;61.10;95263.00;5006779;28;19925;-66
2023/07/30 10:05:03;;;;;;;;;;;;;;;10.33;62.28;95258.97;4989507;28;20012;-65
2023/07/30 10:07:28;;;;;;;;;;;;;;;10.34;61.28;95267.78;5002575;28;20028;-66
2023/07/30 10:09:54;;;;;;;;;;;;;;;10.58;62.36;95263.97;4992523;28;20313;-68
2023/07/30 10:12:23;;;;;;;;;;;;;;;10.90;61.13;95269.03;5002565;28;19937;-66
2023/07/30 10:14:49;;;;;;;;;;;;;;;11.16;61.47;95274.84;5001121;28;19930;-64
2023/07/30 10:17:14;;;;;;;;;;;;;;;10.66;61.28;95276.38;4991714;28;19928;-65
2023/07/30 10:19:39;;;;;;;;;;;;;;;10.82;60.88;95270.00;4986170;28;19927;-62
2023/07/30 10:22:13;;;;;;;;;;;;;;;11.11;59.67;95268.25;4996881;28;20517;-63
2023/07/30 10:24:39;;;;;;;;;;;;;;;11.34;59.31;95280.56;5002628;28;20318;-63
2023/07/30 10:27:08;;;;;;;;;;;;;;;11.19;58.66;95271.81;4988355;28;19926;-63
2023/07/30 10:29:38;;;;;;;;;;;;;;;11.23;60.65;95283.75;5004721;28;19925;-64
2023/07/30 10:32:03;;;;;;;;;;;;;;;10.77;61.77;95295.53;5008336;28;19948;-63
2023/07/30 10:34:44;;;;;;;;;;;;;;;11.32;59.32;95293.25;5001370;28;20456;-64
2023/07/30 10:37:09;;;;;;;;;;;;;;;11.57;59.12;95278.72;5004807;28;19913;-64
2023/07/30 10:39:35;;;;;;;;;;;;;;;11.96;55.89;95285.34;5002293;28;20453;-64
2023/07/30 10:42:00;;;;;;;;;;;;;;;11.13;58.44;95290.19;4990590;28;20131;-64
2023/07/30 10:44:25;;;;;;;;;;;;;;;11.12;59.81;95283.22;5006802;28;19917;-64
2023/07/30 10:46:54;;;;;;;;;;;;;;;10.91;59.25;95307.97;5006371;28;19928;-64
2023/07/30 10:49:19;;;;;;;;;;;;;;;10.73;60.32;95279.94;5002831;28;19917;-63
2023/07/30 10:51:44;;;;;;;;;;;;;;;10.41;61.81;95286.50;5000598;28;20446;-64
2023/07/30 10:54:09;;;;;;;;;;;;;;;10.52;61.67;95285.19;5002634;28;19940;-64
2023/07/30 10:56:36;;;;;;;;;;;;;;;10.80;61.10;95295.13;5001765;28;20469;-63
2023/07/30 10:59:02;;;;;;;;;;;;;;;10.78;60.21;95292.66;5000471;28;20454;-64
2023/07/30 11:01:27;;;;;;;;;;;;;;;10.55;59.65;95298.13;5000089;28;19925;-63
2023/07/30 11:03:52;;;;;;;;;;;;;;;10.94;59.79;95298.78;5000232;28;20390;-63
2023/07/30 11:06:21;;;;;;;;;;;;;;;11.24;59.40;95302.22;5003015;28;20194;-63
2023/07/30 11:08:46;;;;;;;;;;;;;;;10.36;61.77;95306.50;5001716;28;19917;-62
2023/07/30 11:11:11;;;;;;;;;;;;;;;10.99;60.10;95307.03;5000949;28;19979;-63
2023/07/30 11:13:37;;;;;;;;;;;;;;;11.20;60.17;95306.28;4999601;28;19935;-62
2023/07/30 11:16:04;;;;;;;;;;;;;;;11.43;58.98;95305.25;5005376;28;19925;-62
2023/07/30 11:18:30;;;;;;;;;;;;;;;11.20;59.79;95305.44;5003460;28;19917;-63
2023/07/30 11:21:02;;;;;;;;;;;;;;;11.48;58.20;95310.84;4996160;28;20112;-64
2023/07/30 11:23:27;;;;;;;;;;;;;;;11.35;58.95;95311.53;5003167;28;20028;-61
2023/07/30 11:25:52;;;;;;;;;;;;;;;11.60;58.72;95316.47;5001080;28;20426;-62
2023/07/30 11:28:28;;;;;;;;;;;;;;;11.92;58.51;95312.59;5001416;28;19948;-64
2023/07/30 11:30:53;;;;;;;;;;;;;;;12.53;55.80;95312.00;4997486;28;20441;-65
2023/07/30 11:33:18;;;;;;;;;;;;;;;12.98;55.73;95307.25;5015537;28;20024;-65
2023/07/30 11:35:43;;;;;;;;;;;;;;;12.83;54.57;95310.91;5017402;28;19917;-64
2023/07/30 11:38:09;;;;;;;;;;;;;;;12.03;55.90;95309.41;4988407;28;19964;-64
2023/07/30 11:40:34;;;;;;;;;;;;;;;12.18;54.66;95301.34;5004726;28;19921;-64
2023/07/30 11:42:59;;;;;;;;;;;;;;;12.03;54.83;95304.06;4987570;28;19937;-65
2023/07/30 11:45:25;;;;;;;;;;;;;;;11.94;56.31;95300.75;4984417;28;19980;-65
2023/07/30 11:47:52;;;;;;;;;;;;;;;12.69;53.60;95298.50;4981803;28;19918;-65
2023/07/30 11:50:17;;;;;;;;;;;;;;;13.21;52.37;95296.22;4982458;28;19948;-65
2023/07/30 11:52:52;;;;;;;;;;;;;;;14.01;50.58;95301.84;4996459;28;19918;-65
2023/07/30 11:55:19;;;;;;;;;;;;;;;13.88;48.63;95314.22;4981754;28;20424;-65
2023/07/30 11:57:44;;;;;;;;;;;;;;;13.36;48.04;95320.09;4984003;28;20215;-65
2023/07/30 12:00:10;;;;;;;;;;;;;;;12.10;49.70;95330.84;4980531;28;20581;-65
2023/07/30 12:02:35;;;;;;;;;;;;;;;11.69;51.74;95322.50;4980598;28;19933;-64
2023/07/30 12:05:01;;;;;;;;;;;;;;;11.50;50.79;95323.97;4980159;28;20311;-64
2023/07/30 12:07:26;;;;;;;;;;;;;;;11.85;50.73;95340.06;4979181;28;20016;-64
2023/07/30 12:09:51;;;;;;;;;;;;;;;12.45;50.73;95333.53;4989587;28;19987;-64
2023/07/30 12:12:16;;;;;;;;;;;;;;;11.91;53.12;95338.47;4989438;28;20145;-64
2023/07/30 12:14:43;;;;;;;;;;;;;;;11.80;53.94;95334.47;4984874;28;19918;-64
2023/07/30 12:17:09;;;;;;;;;;;;;;;12.88;50.79;95342.31;4981059;28;19969;-64
2023/07/30 12:19:36;;;;;;;;;;;;;;;12.15;51.27;95349.75;4978441;28;19921;-64
2023/07/30 12:22:01;;;;;;;;;;;;;;;12.19;54.10;95328.84;4980810;28;19918;-64
2023/07/30 12:24:26;;;;;;;;;;;;;;;12.78;54.40;95335.53;4982414;28;20413;-64
2023/07/30 12:26:51;;;;;;;;;;;;;;;12.77;50.63;95338.38;4983832;28;19944;-64
2023/07/30 12:29:17;;;;;;;;;;;;;;;12.70;50.52;95330.34;4980920;28;20402;-65
2023/07/30 12:31:42;;;;;;;;;;;;;;;13.75;49.38;95324.88;4987514;28;20401;-65
2023/07/30 12:34:07;;;;;;;;;;;;;;;13.15;48.25;95339.78;4990776;28;19917;-65
2023/07/30 12:36:32;;;;;;;;;;;;;;;14.01;47.35;95334.78;4987202;28;19921;-65
2023/07/30 12:38:58;;;;;;;;;;;;;;;14.32;45.95;95327.94;4982667;28;20315;-65